Time;durP1;ratioP1;P1;durP2;ratioP2;P2;SDS_P1;SDS_P2;PMS_P1;PMS_P2;Temp;Humidity;BMP_temperature;BMP_pressure;BME280_temperature;BME280_humidity;BME280_pressure;Samples;Min_cycle;Max_cycle;Signal;HPM_P1;HPM_P2
2022/01/04 00:02:16;;;;;;;1.83;1.60;;;;;;;11.79;51.36;99352.97;7711078;32;36588;-80
2022/01/04 00:06:32;;;;;;;4.35;1.80;;;;;;;12.03;50.47;99353.81;7711419;32;38499;-80
2022/01/04 00:11:06;;;;;;;3.30;2.17;;;;;;;11.93;49.01;99343.00;7710719;32;40584;-80
2022/01/04 00:15:23;;;;;;;2.33;1.90;;;;;;;12.20;48.33;99347.88;7710685;32;37833;-80
2022/01/04 00:19:39;;;;;;;5.03;1.60;;;;;;;12.14;49.05;99345.50;7710733;32;36900;-80
2022/01/04 00:23:55;;;;;;;3.90;1.85;;;;;;;12.08;49.24;99349.41;7710772;32;38982;-80
2022/01/04 00:28:12;;;;;;;3.00;1.85;;;;;;;12.18;48.81;99343.81;7710590;32;39847;-79
2022/01/04 00:32:28;;;;;;;5.53;2.35;;;;;;;12.10;49.02;99339.00;7710327;32;37946;-79
2022/01/04 00:36:44;;;;;;;3.90;1.80;;;;;;;11.99;50.08;99333.66;7710386;32;37000;-80
2022/01/04 00:41:00;;;;;;;2.83;1.73;;;;;;;12.03;50.16;99312.84;7710345;32;39409;-80
2022/01/04 00:45:16;;;;;;;4.30;2.00;;;;;;;12.06;50.29;99308.72;7710148;32;40813;-79
2022/01/04 00:49:32;;;;;;;4.10;2.12;;;;;;;12.13;49.75;99319.28;7709963;32;38825;-80
2022/01/04 00:53:49;;;;;;;6.03;1.80;;;;;;;12.14;49.56;99315.44;7709851;32;37418;-79
2022/01/04 00:58:05;;;;;;;5.55;2.12;;;;;;;12.00;49.63;99299.78;7709949;32;39722;-80
2022/01/04 01:02:22;;;;;;;6.90;2.12;;;;;;;12.09;50.15;99290.91;7709797;32;40118;-81
2022/01/04 01:06:39;;;;;;;3.22;2.17;;;;;;;11.86;51.44;99298.00;7710344;32;38406;-80
2022/01/04 01:10:55;;;;;;;4.30;1.90;;;;;;;11.65;52.45;99299.06;7713027;32;37030;-80
2022/01/04 01:15:11;;;;;;;5.15;2.08;;;;;;;11.94;50.65;99292.75;7713083;32;40100;-80
2022/01/04 01:19:27;;;;;;;7.47;2.10;;;;;;;12.12;49.17;99291.13;7712806;32;40949;-80
2022/01/04 01:23:44;;;;;;;6.15;2.22;;;;;;;11.93;49.38;99296.56;7712876;32;37974;-79
2022/01/04 01:28:00;;;;;;;5.12;2.08;;;;;;;12.28;48.52;99283.56;7711705;32;36986;-79
2022/01/04 01:32:16;;;;;;;7.32;2.30;;;;;;;11.99;50.32;99275.47;7712870;32;39380;-80
2022/01/04 01:36:33;;;;;;;3.75;2.17;;;;;;;11.82;50.57;99265.81;7712725;32;41196;-80
2022/01/04 01:40:49;;;;;;;3.00;1.90;;;;;;;11.87;50.37;99261.41;7712908;32;37690;-80
2022/01/04 01:45:08;;;;;;;6.15;2.30;;;;;;;11.75;50.42;99240.00;7712685;32;37707;-80
2022/01/04 01:49:24;;;;;;;3.37;2.10;;;;;;;11.71;51.02;99233.47;7712725;32;39157;-80
2022/01/04 01:53:40;;;;;;;3.58;2.30;;;;;;;11.74;51.14;99241.09;7712483;32;40827;-80
2022/01/04 01:57:56;;;;;;;6.37;2.20;;;;;;;11.85;49.27;99231.66;7711280;32;38010;-80
2022/01/04 02:02:12;;;;;;;3.55;2.20;;;;;;;12.18;48.03;99229.03;7712527;32;37676;-79
2022/01/04 02:06:29;;;;;;;3.08;1.80;;;;;;;12.03;48.56;99219.12;7712565;32;39844;-80
2022/01/04 02:10:46;;;;;;;7.43;1.95;;;;;;;11.91;49.52;99205.12;7712306;32;40780;-80
2022/01/04 02:15:05;;;;;;;4.35;1.80;;;;;;;11.54;48.92;99204.75;7712274;32;38602;-80
2022/01/04 02:19:21;;;;;;;8.00;2.45;;;;;;;11.83;48.09;99201.06;7711458;32;36093;-80
2022/01/04 02:23:37;;;;;;;4.07;1.90;;;;;;;11.56;49.18;99186.16;7712355;32;39003;-80
2022/01/04 02:27:54;;;;;;;5.50;2.47;;;;;;;11.44;50.07;99181.12;7712194;32;40989;-80
2022/01/04 02:32:10;;;;;;;4.07;2.08;;;;;;;11.85;49.11;99152.47;7712010;32;37717;-79
2022/01/04 02:36:26;;;;;;;3.70;2.40;;;;;;;11.87;48.38;99142.03;7712115;32;37657;-79
2022/01/04 02:40:42;;;;;;;4.97;2.30;;;;;;;12.03;48.14;99146.19;7712054;32;39273;-79
2022/01/04 02:45:00;;;;;;;3.45;1.87;;;;;;;12.16;47.83;99124.69;7710733;32;40004;-79
2022/01/04 02:49:21;;;;;;;5.93;2.28;;;;;;;11.94;48.58;99114.38;7711981;32;37860;-79
2022/01/04 02:53:37;;;;;;;6.80;2.12;;;;;;;12.05;48.04;99104.91;7711827;32;37707;-80
2022/01/04 02:57:53;;;;;;;3.92;2.00;;;;;;;12.00;47.07;99105.81;7711939;32;39243;-80
2022/01/04 03:02:09;;;;;;;4.72;2.08;;;;;;;11.93;46.91;99097.16;7711864;32;39779;-80
2022/01/04 03:06:26;;;;;;;3.25;1.95;;;;;;;11.87;46.58;99117.47;7711712;32;38084;-79
2022/01/04 03:10:42;;;;;;;5.45;3.00;;;;;;;11.89;49.20;99112.50;7711428;32;37024;-80
2022/01/04 03:14:58;;;;;;;8.57;3.10;;;;;;;10.96;52.73;99136.69;7711635;32;39272;-80
2022/01/04 03:19:14;;;;;;;11.82;3.58;;;;;;;10.86;53.73;99157.50;7711438;32;39901;-79
2022/01/04 03:23:30;;;;;;;6.28;3.50;;;;;;;10.62;54.84;99151.22;7711503;32;37887;-79
2022/01/04 03:27:46;;;;;;;6.87;3.35;;;;;;;10.62;53.50;99123.97;7711571;32;36992;-79
2022/01/04 03:32:02;;;;;;;8.07;3.60;;;;;;;10.69;52.92;99121.69;7711269;32;39183;-80
2022/01/04 03:36:22;;;;;;;11.65;4.32;;;;;;;11.08;51.09;99116.06;7711350;32;40009;-80
2022/01/04 03:40:38;;;;;;;10.50;4.93;;;;;;;11.27;50.66;99110.66;7711318;32;37756;-80
2022/01/04 03:44:54;;;;;;;10.50;5.35;;;;;;;10.83;51.66;99100.00;7711272;32;37508;-80
2022/01/04 03:49:11;;;;;;;10.60;5.15;;;;;;;10.82;51.87;99085.56;7711415;32;39295;-80
2022/01/04 03:53:27;;;;;;;10.77;5.18;;;;;;;11.11;50.88;99081.97;7711019;32;39935;-79
2022/01/04 03:57:43;;;;;;;10.20;5.32;;;;;;;11.33;50.33;99070.47;7711021;32;38344;-80
2022/01/04 04:01:59;;;;;;;9.27;5.05;;;;;;;11.47;50.04;99046.00;7711217;32;37516;-80
2022/01/04 04:06:15;;;;;;;9.05;4.72;;;;;;;11.23;49.92;99049.59;7711037;32;38986;-80
2022/01/04 04:10:31;;;;;;;6.32;4.07;;;;;;;11.51;49.94;99044.28;7710960;32;40610;-80
2022/01/04 04:14:47;;;;;;;9.15;4.30;;;;;;;11.52;50.28;99045.91;7710719;32;38115;-80
2022/01/04 04:19:07;;;;;;;9.55;4.22;;;;;;;11.35;51.15;99043.69;7710544;32;37632;-79
2022/01/04 04:23:23;;;;;;;7.35;3.83;;;;;;;11.10;51.25;99047.59;7710704;32;39070;-80
2022/01/04 04:27:39;;;;;;;9.73;4.62;;;;;;;10.92;51.74;99045.63;7710584;32;39863;-80
2022/01/04 04:31:55;;;;;;;9.32;5.10;;;;;;;10.72;52.20;99042.06;7710403;32;37871;-79
2022/01/04 04:36:11;;;;;;;9.32;5.03;;;;;;;10.80;52.11;99038.69;7710481;32;36921;-80
2022/01/04 04:40:28;;;;;;;7.53;4.07;;;;;;;10.47;53.08;99027.63;7710162;32;39193;-80
2022/01/04 04:44:45;;;;;;;8.32;4.00;;;;;;;10.72;52.30;99044.78;7709806;32;40700;-79
2022/01/04 04:49:01;;;;;;;8.57;4.47;;;;;;;10.60;52.82;99049.84;7710056;32;37557;-80
2022/01/04 04:53:17;;;;;;;8.25;4.90;;;;;;;10.39;53.11;99055.50;7709966;32;36725;-80
2022/01/04 04:57:33;;;;;;;9.13;4.72;;;;;;;9.96;55.29;99037.09;7709931;32;38931;-80
2022/01/04 05:01:49;;;;;;;9.85;5.40;;;;;;;10.44;53.99;99039.13;7709755;32;39695;-80
2022/01/04 05:06:05;;;;;;;10.48;5.47;;;;;;;10.30;54.40;99038.94;7709665;32;37970;-79
2022/01/04 05:10:22;;;;;;;12.77;6.10;;;;;;;10.32;54.38;99022.34;7708371;32;37736;-80
2022/01/04 05:14:39;;;;;;;10.63;6.18;;;;;;;10.30;54.49;99030.78;7709390;32;39978;-80
2022/01/04 05:18:55;;;;;;;13.62;5.60;;;;;;;10.34;54.28;99020.94;7709027;32;39616;-80
2022/01/04 05:23:11;;;;;;;11.40;6.50;;;;;;;10.48;53.44;99015.63;7709185;32;37705;-79
2022/01/04 05:27:27;;;;;;;13.10;6.47;;;;;;;10.18;54.56;99024.13;7709196;32;36634;-79
2022/01/04 05:31:43;;;;;;;11.70;6.55;;;;;;;10.22;54.37;99025.16;7708957;32;39052;-79
2022/01/04 05:36:00;;;;;;;11.30;6.62;;;;;;;10.02;54.95;99013.38;7708908;32;39878;-80
2022/01/04 05:40:16;;;;;;;12.65;6.00;;;;;;;10.06;54.85;99000.78;7708721;32;37854;-79
2022/01/04 05:44:32;;;;;;;13.82;7.47;;;;;;;10.01;54.94;98989.94;7708836;32;36847;-80
2022/01/04 05:48:48;;;;;;;15.75;8.27;;;;;;;10.04;54.91;98994.81;7708629;32;39171;-80
2022/01/04 05:53:05;;;;;;;13.88;6.55;;;;;;;9.85;55.42;98983.84;7708719;32;39935;-80
2022/01/04 05:57:21;;;;;;;13.40;7.40;;;;;;;9.50;57.19;98985.78;7712502;32;37879;-80
2022/01/04 06:01:38;;;;;;;10.90;5.55;;;;;;;9.65;56.65;98984.03;7712548;32;37857;-80
2022/01/04 06:05:55;;;;;;;13.85;6.15;;;;;;;8.84;58.21;99006.03;7712483;32;40095;-80
2022/01/04 06:10:13;;;;;;;14.55;8.52;;;;;;;9.17;57.40;98987.37;7712392;32;40814;-80
2022/01/04 06:19:03;;;;;;;16.55;9.35;;;;;;;9.18;58.67;98970.78;7712166;32;38511;-80
2022/01/04 06:23:19;;;;;;;16.77;8.63;;;;;;;9.08;58.99;98953.72;7712402;32;40058;-80
2022/01/04 06:27:35;;;;;;;19.70;10.52;;;;;;;8.73;59.65;98969.16;7712120;32;40752;-80
2022/01/04 06:31:51;;;;;;;15.52;8.45;;;;;;;8.83;59.95;98977.25;7712125;32;37786;-80
2022/01/04 06:36:08;;;;;;;13.20;6.93;;;;;;;8.93;60.04;98962.78;7712311;32;37029;-80
2022/01/04 06:40:24;;;;;;;11.48;6.62;;;;;;;9.13;59.95;98949.03;7712210;32;39285;-80
2022/01/04 06:44:43;;;;;;;11.10;5.97;;;;;;;9.06;61.06;98947.75;7712033;32;39999;-79
2022/01/04 06:48:59;;;;;;;11.10;5.75;;;;;;;9.23;60.51;98931.84;7712048;32;37761;-80
2022/01/04 06:53:15;;;;;;;12.98;6.20;;;;;;;9.77;58.70;98944.44;7712063;32;36851;-81
2022/01/04 06:57:31;;;;;;;13.73;5.95;;;;;;;9.93;58.08;98947.00;7712064;32;40018;-80
2022/01/04 07:01:47;;;;;;;12.32;5.95;;;;;;;9.83;58.39;98938.94;7711977;32;39798;-80
2022/01/04 07:06:04;;;;;;;10.82;5.78;;;;;;;9.78;58.51;98954.22;7711374;32;37795;-83
2022/01/04 07:10:20;;;;;;;12.30;5.80;;;;;;;10.44;63.74;98962.81;7711803;32;36967;-79
2022/01/04 07:14:36;;;;;;;10.95;6.35;;;;;;;10.18;57.61;98972.34;7711598;32;39874;-79
2022/01/04 07:18:52;;;;;;;9.73;5.20;;;;;;;10.38;57.07;98968.59;7711471;32;39853;-78
2022/01/04 07:23:08;;;;;;;9.13;5.35;;;;;;;10.27;57.08;98951.53;7711547;32;38610;-77
2022/01/04 07:27:24;;;;;;;11.27;5.53;;;;;;;10.27;56.29;98948.81;7711637;32;37651;-79
2022/01/04 07:31:40;;;;;;;11.15;6.25;;;;;;;10.24;56.20;98954.84;7711563;32;40078;-79
2022/01/04 07:35:57;;;;;;;21.77;9.95;;;;;;;9.93;57.57;98956.00;7711480;32;39917;-78
2022/01/04 07:40:17;;;;;;;14.00;7.87;;;;;;;9.65;56.51;98949.44;7710056;32;37851;-78
2022/01/04 07:44:34;;;;;;;14.98;7.97;;;;;;;9.85;57.03;98939.44;7737476;32;37192;-78
2022/01/04 07:48:51;;;;;;;12.77;7.12;;;;;;;9.95;57.00;98932.00;7737557;32;40170;-78
2022/01/04 07:53:08;;;;;;;16.08;8.00;;;;;;;10.01;57.32;98926.50;7737804;32;39947;-78
2022/01/04 07:57:24;;;;;;;15.68;8.52;;;;;;;10.30;56.93;98926.44;7737621;32;37994;-82
2022/01/04 08:01:40;;;;;;;11.45;7.03;;;;;;;10.40;56.25;98925.53;7737572;32;37094;-77
2022/01/04 08:05:56;;;;;;;13.13;7.45;;;;;;;10.47;56.20;98915.91;7737511;32;39338;-76
2022/01/04 08:10:13;;;;;;;14.43;7.60;;;;;;;10.55;56.86;98905.47;7737370;32;40802;-77
2022/01/04 08:14:29;;;;;;;12.43;6.22;;;;;;;10.38;56.26;98884.16;7737252;32;38566;-76
2022/01/04 08:18:45;;;;;;;12.55;6.78;;;;;;;10.69;55.41;98884.53;7734850;32;37536;-75
2022/01/04 08:23:20;;;;;;;17.92;6.55;;;;;;;10.87;55.00;98872.81;7737303;32;39393;-76
2022/01/04 08:27:37;;;;;;;13.00;6.80;;;;;;;10.76;54.78;98863.16;7737199;32;40820;-77
2022/01/04 08:31:53;;;;;;;11.90;6.62;;;;;;;10.75;55.87;98867.00;7737044;32;38519;-77
2022/01/04 08:36:10;;;;;;;18.10;8.40;;;;;;;11.19;54.79;98854.88;7736978;32;36773;-76
2022/01/04 08:40:26;;;;;;;20.40;7.15;;;;;;;11.25;54.13;98850.94;7736814;32;39348;-76
2022/01/04 08:44:42;;;;;;;11.93;6.97;;;;;;;11.32;53.87;98841.56;7722462;32;40021;-76
2022/01/04 08:48:59;;;;;;;14.10;8.52;;;;;;;11.31;53.67;98842.66;7709644;32;38592;-76
2022/01/04 08:53:15;;;;;;;18.30;8.98;;;;;;;11.55;52.46;98850.69;7709637;32;37082;-75
2022/01/04 08:57:32;;;;;;;18.12;9.60;;;;;;;11.30;53.47;98835.56;7708448;32;39773;-76
2022/01/04 09:01:48;;;;;;;19.60;10.23;;;;;;;11.17;53.97;98848.88;7709677;32;39857;-76
2022/01/04 09:06:04;;;;;;;21.52;10.82;;;;;;;11.22;54.29;98856.19;7709743;32;38028;-76
2022/01/04 09:10:21;;;;;;;16.70;9.68;;;;;;;11.17;54.58;98840.69;7709646;32;37814;-76
2022/01/04 09:14:43;;;;;;;16.48;9.50;;;;;;;10.73;55.64;98836.50;7709539;32;39414;-77
2022/01/04 09:18:59;;;;;;;20.15;10.88;;;;;;;10.82;55.59;98842.91;7709387;32;40741;-77
2022/01/04 09:23:22;;;;;;;18.75;10.68;;;;;;;10.84;56.05;98828.97;7709282;32;37707;-77
2022/01/04 09:27:38;;;;;;;16.65;10.13;;;;;;;10.73;55.84;98822.06;7709908;32;37942;-79
2022/01/04 09:31:55;;;;;;;17.58;9.55;;;;;;;10.87;56.17;98823.75;7712812;32;39284;-75
2022/01/04 09:36:11;;;;;;;14.10;9.02;;;;;;;11.13;56.05;98806.94;7712858;32;39689;-75
2022/01/04 09:40:27;;;;;;;16.37;10.20;;;;;;;11.35;55.23;98780.91;7712953;32;37613;-75
2022/01/04 09:44:44;;;;;;;18.37;9.98;;;;;;;11.49;55.16;98762.66;7712853;32;37016;-75
2022/01/04 09:49:00;;;;;;;14.73;9.10;;;;;;;11.54;54.86;98768.00;7712772;32;40065;-75
2022/01/04 09:53:19;;;;;;;14.32;8.00;;;;;;;11.61;55.11;98743.03;7711633;32;40259;-75
2022/01/04 09:57:35;;;;;;;15.25;7.75;;;;;;;11.56;55.45;98743.94;7712664;32;37557;-77
2022/01/04 10:01:59;;;;;;;14.90;8.57;;;;;;;11.59;57.38;98748.78;7712661;32;36742;-77
2022/01/04 10:06:16;;;;;;;16.42;8.63;;;;;;;11.64;55.78;98756.88;7712617;32;39388;-77
2022/01/04 10:10:33;;;;;;;14.93;8.95;;;;;;;11.89;54.93;98749.28;7712584;32;40105;-77
2022/01/04 10:14:51;;;;;;;16.98;8.23;;;;;;;11.81;54.82;98766.37;7712360;32;37696;-77
2022/01/04 10:19:07;;;;;;;12.20;7.43;;;;;;;11.52;55.33;98731.19;7712076;32;37067;-77
2022/01/04 10:23:23;;;;;;;18.12;8.48;;;;;;;11.54;54.77;98707.13;7712526;32;39183;-77
2022/01/04 10:27:43;;;;;;;15.55;8.35;;;;;;;11.97;54.23;98665.81;7712288;32;40787;-78
2022/01/04 10:32:10;;;;;;;14.25;8.45;;;;;;;11.74;55.39;98654.03;7712188;32;37850;-78
2022/01/04 10:36:36;;;;;;;15.43;9.13;;;;;;;11.35;56.62;98682.69;7711028;32;36993;-78
2022/01/04 10:41:08;;;;;;;16.37;8.15;;;;;;;11.46;56.78;98682.16;7711544;32;40589;-78
2022/01/04 10:45:30;;;;;;;15.32;7.97;;;;;;;11.78;56.30;98685.06;7712167;32;39971;-78
2022/01/04 10:52:18;;;;;;;14.98;9.25;;;;;;;12.39;53.29;98689.13;7887002;31;311881;-79
2022/01/04 10:56:38;;;;;;;24.08;12.88;;;;;;;12.39;53.29;98689.13;7867983;31;39704;-79
2022/01/04 11:01:11;;;;;;;20.45;10.30;;;;;;;11.61;55.62;98686.50;7867542;31;37930;-79
2022/01/04 11:05:27;;;;;;;21.25;12.50;;;;;;;12.07;55.08;98642.94;7867772;31;38002;-79
2022/01/04 11:09:43;;;;;;;21.50;12.70;;;;;;;11.25;55.28;98657.22;7867624;31;39061;-79
2022/01/04 11:14:00;;;;;;;19.20;11.15;;;;;;;11.82;54.75;98631.47;7867572;31;39899;-78
2022/01/04 11:18:16;;;;;;;15.75;9.25;;;;;;;12.06;54.45;98631.19;7867441;31;38764;-78
2022/01/04 11:22:34;;;;;;;13.15;7.12;;;;;;;12.08;53.98;98625.44;7867486;31;37705;-78
2022/01/04 11:26:51;;;;;;;12.98;7.05;;;;;;;12.19;52.40;98635.81;7867712;31;39921;-78
2022/01/04 11:31:58;;;;;;;12.80;6.60;;;;;;;11.67;53.59;98615.41;7867515;31;39718;-79
2022/01/04 11:36:17;;;;;;;17.40;8.73;;;;;;;11.47;53.87;98603.84;7863951;31;38607;-78
2022/01/04 11:40:40;;;;;;;12.55;6.87;;;;;;;10.84;56.37;98597.22;7867396;31;36994;-77
2022/01/04 11:44:57;;;;;;;11.82;6.70;;;;;;;11.68;54.24;98585.09;7867319;31;39851;-78
2022/01/04 11:49:14;;;;;;;13.30;5.82;;;;;;;11.62;54.43;98584.41;7867170;31;40662;-78
2022/01/04 11:53:34;;;;;;;10.63;5.80;;;;;;;11.56;54.70;98582.91;7867045;31;37860;-76
2022/01/04 11:57:52;;;;;;;10.63;5.90;;;;;;;11.96;53.70;98566.69;7867091;31;36994;-77
2022/01/04 12:02:39;;;;;;;9.98;5.43;;;;;;;11.48;54.82;98575.44;7854648;31;39020;-77
2022/01/04 12:06:57;;;;;;;9.82;5.15;;;;;;;11.47;54.90;98571.09;7848245;31;39711;-77
2022/01/04 12:11:25;;;;;;;8.68;4.70;;;;;;;12.05;53.77;98574.16;7846856;31;38577;-77
2022/01/04 12:16:07;;;;;;;9.90;4.65;;;;;;;11.15;55.55;98575.59;7848481;31;36858;-77
2022/01/04 12:21:01;;;;;;;12.75;4.40;;;;;;;10.77;56.80;98586.72;7846143;31;39054;-78
2022/01/04 12:25:17;;;;;;;9.37;5.07;;;;;;;10.56;57.99;98582.78;7771318;31;40811;-78
2022/01/04 12:29:33;;;;;;;8.80;4.65;;;;;;;10.70;57.52;98580.88;7847786;31;37652;-77
2022/01/04 12:33:50;;;;;;;10.15;4.80;;;;;;;10.51;58.77;98589.94;7847876;31;37839;-77
2022/01/04 12:38:09;;;;;;;9.60;4.90;;;;;;;10.50;58.60;98588.31;7847671;31;39154;-77
2022/01/04 12:42:25;;;;;;;8.23;4.50;;;;;;;10.72;57.87;98559.56;7847404;31;39918;-77
2022/01/04 12:46:45;;;;;;;12.43;5.18;;;;;;;10.05;59.81;98532.72;7846628;31;38719;-78
2022/01/04 12:51:21;;;;;;;9.15;5.87;;;;;;;10.76;57.63;98513.41;7846502;31;36894;-78
2022/01/04 12:55:37;;;;;;;8.60;4.37;;;;;;;11.42;55.58;98503.00;7847831;31;38913;-78
2022/01/04 12:59:55;;;;;;;7.72;4.37;;;;;;;11.45;55.40;98530.47;7847759;31;40585;-78
2022/01/04 13:04:33;;;;;;;8.73;4.15;;;;;;;11.22;56.32;98510.50;7846890;31;36825;-78
2022/01/04 13:08:57;;;;;;;9.52;5.03;;;;;;;11.25;55.88;98509.09;7847413;31;36450;-78
2022/01/04 13:13:23;;;;;;;8.48;4.50;;;;;;;11.13;56.06;98496.00;7846845;31;39074;-78
2022/01/04 13:17:44;;;;;;;9.50;4.32;;;;;;;11.30;56.23;98480.88;7846662;31;40837;-78
2022/01/04 13:22:14;;;;;;;10.75;5.00;;;;;;;11.49;55.49;98469.78;7847592;31;38636;-78
2022/01/04 13:26:30;;;;;;;9.20;4.45;;;;;;;11.90;54.05;98468.78;7846619;31;37597;-78
2022/01/04 13:30:47;;;;;;;7.68;3.97;;;;;;;11.88;54.03;98466.34;7847479;31;39131;-78
2022/01/04 13:35:09;;;;;;;6.25;4.20;;;;;;;11.83;54.06;98466.50;7848000;31;39075;-78
2022/01/04 13:39:25;;;;;;;7.57;4.05;;;;;;;11.99;53.58;98456.81;7847396;31;37845;-78
2022/01/04 13:43:45;;;;;;;8.27;4.28;;;;;;;12.20;53.27;98442.62;7847557;31;37460;-79
2022/01/04 13:48:01;;;;;;;6.85;4.25;;;;;;;12.29;52.71;98453.56;7847311;31;39400;-78
2022/01/04 13:52:18;;;;;;;11.45;4.30;;;;;;;11.79;54.28;98440.94;7847177;31;40725;-79
2022/01/04 13:56:34;;;;;;;7.25;4.10;;;;;;;11.80;54.51;98442.56;7847117;31;38768;-78
2022/01/04 14:00:50;;;;;;;6.15;3.67;;;;;;;12.16;53.18;98444.38;7847121;31;37703;-79
2022/01/04 14:05:17;;;;;;;7.03;4.20;;;;;;;12.10;53.29;98438.22;7847088;31;39120;-79
2022/01/04 14:09:41;;;;;;;5.53;3.25;;;;;;;12.50;52.34;98429.19;7846948;31;39993;-79
2022/01/04 14:14:08;;;;;;;8.18;3.50;;;;;;;12.68;51.53;98441.78;7847129;31;37925;-78
2022/01/04 14:18:24;;;;;;;5.30;3.12;;;;;;;12.47;52.04;98438.84;7847040;31;37677;-79
2022/01/04 14:22:41;;;;;;;6.28;3.62;;;;;;;12.80;51.33;98422.03;7846773;31;39200;-79
2022/01/04 14:26:58;;;;;;;5.60;3.35;;;;;;;12.47;52.24;98413.44;7846535;31;39688;-78
2022/01/04 14:31:18;;;;;;;9.43;3.75;;;;;;;12.68;51.71;98397.25;7846596;31;37879;-78
2022/01/04 14:35:35;;;;;;;7.78;3.53;;;;;;;12.63;52.00;98391.94;7846620;31;37617;-78
2022/01/04 14:39:53;;;;;;;6.45;3.53;;;;;;;12.27;53.10;98407.44;7846450;31;39094;-78
2022/01/04 14:44:09;;;;;;;8.52;4.15;;;;;;;12.28;53.71;98397.31;7846347;31;40612;-78
2022/01/04 14:48:25;;;;;;;6.93;3.90;;;;;;;11.30;56.73;98420.84;7845986;31;37958;-78
2022/01/04 14:52:41;;;;;;;6.10;3.50;;;;;;;11.72;55.31;98407.81;7846087;31;37102;-79
2022/01/04 14:56:58;;;;;;;7.35;4.28;;;;;;;11.81;55.05;98411.38;7846035;31;39129;-79
2022/01/04 15:01:14;;;;;;;7.57;3.30;;;;;;;12.06;54.67;98420.06;7845883;31;40838;-78
2022/01/04 15:05:30;;;;;;;9.85;4.07;;;;;;;12.56;54.08;98417.00;7845758;31;37866;-79
2022/01/04 15:09:47;;;;;;;7.00;3.37;;;;;;;12.96;52.71;98378.59;7845437;31;37024;-78
2022/01/04 15:14:03;;;;;;;7.80;4.12;;;;;;;12.78;52.65;98373.12;7845723;31;39036;-78
2022/01/04 15:18:19;;;;;;;16.55;3.70;;;;;;;12.91;53.56;98370.56;7844345;31;40759;-78
2022/01/04 15:22:38;;;;;;;7.35;3.53;;;;;;;13.21;53.19;98348.81;7844249;31;38009;-78
2022/01/04 15:26:54;;;;;;;12.02;4.00;;;;;;;12.95;52.49;98320.38;7845315;31;35839;-78
2022/01/04 15:31:11;;;;;;;7.43;3.53;;;;;;;12.81;53.74;98295.09;7845126;31;39069;-78
2022/01/04 15:35:27;;;;;;;8.55;3.55;;;;;;;13.35;52.71;98302.94;7845696;31;39839;-78
2022/01/04 15:39:43;;;;;;;14.15;8.13;;;;;;;13.38;52.61;98285.84;7848949;31;37619;-79
2022/01/04 15:43:59;;;;;;;7.43;3.80;;;;;;;13.20;53.49;98284.28;7849021;31;37021;-79
2022/01/04 15:48:15;;;;;;;6.10;3.60;;;;;;;13.19;52.72;98288.13;7848668;31;39254;-78
2022/01/04 15:52:31;;;;;;;6.82;3.40;;;;;;;13.41;52.17;98284.41;7848735;31;40980;-78
2022/01/04 15:56:47;;;;;;;6.47;3.05;;;;;;;12.82;52.53;98296.72;7848724;31;37956;-78
2022/01/04 16:01:05;;;;;;;7.82;3.40;;;;;;;12.40;53.90;98291.75;7848706;31;37055;-78
2022/01/04 16:05:21;;;;;;;7.07;3.30;;;;;;;12.76;53.33;98287.88;7847473;31;39714;-78
2022/01/04 16:09:37;;;;;;;6.95;3.00;;;;;;;12.56;54.22;98302.19;7848483;31;41291;-78
2022/01/04 16:14:08;;;;;;;5.35;3.08;;;;;;;11.98;55.90;98277.66;7848266;31;38759;-78
2022/01/04 16:22:43;;;;;;;5.18;3.00;;;;;;;12.57;53.81;98301.06;7847865;31;40123;-78
2022/01/04 16:27:00;;;;;;;6.03;3.30;;;;;;;12.74;53.52;98284.66;7848159;31;40756;-79
2022/01/04 16:31:16;;;;;;;4.75;2.67;;;;;;;12.52;54.15;98302.03;7848001;31;37823;-78
2022/01/04 16:35:32;;;;;;;7.82;3.03;;;;;;;13.24;52.32;98290.69;7847996;31;36843;-79
2022/01/04 16:39:49;;;;;;;4.93;2.72;;;;;;;13.16;52.38;98295.06;7847988;31;39094;-78
2022/01/04 16:44:05;;;;;;;6.62;2.60;;;;;;;13.36;51.87;98310.00;7848254;31;40136;-78
2022/01/04 16:48:21;;;;;;;4.50;2.90;;;;;;;13.36;52.07;98296.31;7847644;31;37772;-79
2022/01/04 16:52:42;;;;;;;5.50;3.17;;;;;;;13.46;51.53;98317.88;7847989;31;37662;-77
2022/01/04 16:57:00;;;;;;;6.32;3.17;;;;;;;13.57;50.94;98321.03;7848038;31;40060;-78
2022/01/04 17:01:17;;;;;;;6.87;3.20;;;;;;;13.10;52.14;98313.56;7847914;31;39897;-79
2022/01/04 17:05:39;;;;;;;4.25;2.72;;;;;;;12.80;53.17;98309.09;7847777;31;38584;-77
2022/01/04 17:09:59;;;;;;;5.25;2.80;;;;;;;12.68;53.32;98312.50;7847793;31;36897;-78
2022/01/04 17:18:52;;;;;;;6.75;2.80;;;;;;;13.48;51.46;98301.13;7847768;31;40050;-77
2022/01/04 17:23:08;;;;;;;7.00;2.62;;;;;;;13.29;51.35;98315.94;7847574;31;37943;-78
2022/01/04 17:27:24;;;;;;;5.75;2.97;;;;;;;12.84;52.99;98305.41;7847651;31;36927;-79
2022/01/04 17:31:40;;;;;;;6.30;3.05;;;;;;;13.00;52.46;98296.69;7847470;31;39931;-78
2022/01/04 17:35:56;;;;;;;4.00;2.78;;;;;;;13.44;51.56;98287.28;7847448;31;40833;-78
2022/01/04 17:40:13;;;;;;;7.85;2.83;;;;;;;13.29;51.66;98294.06;7847322;31;37900;-79
2022/01/04 17:44:29;;;;;;;4.87;2.60;;;;;;;13.60;51.18;98284.00;7847438;31;37528;-78
2022/01/04 17:48:46;;;;;;;6.95;3.25;;;;;;;13.17;51.53;98290.41;7847120;31;39946;-78
2022/01/04 17:53:03;;;;;;;8.20;3.85;;;;;;;13.23;51.48;98294.53;7846931;31;39908;-79
2022/01/04 17:57:19;;;;;;;6.30;3.45;;;;;;;13.19;52.04;98290.88;7846877;31;38457;-79
2022/01/04 18:01:35;;;;;;;6.57;3.10;;;;;;;13.24;51.42;98285.22;7846207;31;36714;-79
2022/01/04 18:06:01;;;;;;;4.12;2.85;;;;;;;13.14;51.74;98268.03;7847055;31;40358;-79
2022/01/04 18:10:17;;;;;;;7.65;3.15;;;;;;;13.38;51.25;98271.37;7846597;31;39871;-79
2022/01/04 18:14:33;;;;;;;5.90;2.92;;;;;;;13.06;51.72;98274.31;7846618;31;37887;-79
2022/01/04 18:18:51;;;;;;;6.37;2.70;;;;;;;13.44;50.86;98284.53;7846543;31;36919;-79
2022/01/04 18:23:14;;;;;;;5.70;2.83;;;;;;;13.30;50.92;98294.88;7846494;31;39922;-79
2022/01/04 18:27:31;;;;;;;5.78;3.10;;;;;;;13.44;51.21;98284.53;7846630;31;40699;-79
2022/01/04 18:31:47;;;;;;;6.47;3.08;;;;;;;13.41;50.82;98287.94;7846425;31;38739;-78
2022/01/04 18:36:03;;;;;;;3.90;2.60;;;;;;;13.37;50.93;98287.00;7846522;31;37525;-78
2022/01/04 18:40:20;;;;;;;5.45;2.72;;;;;;;13.57;50.45;98288.19;7846471;31;39282;-79
2022/01/04 18:44:37;;;;;;;4.68;2.55;;;;;;;13.63;50.60;98277.87;7846495;31;40846;-78
2022/01/04 18:48:55;;;;;;;7.07;2.85;;;;;;;13.40;50.48;98286.34;7846020;31;37720;-77
2022/01/04 18:53:11;;;;;;;4.82;2.70;;;;;;;13.56;50.29;98278.37;7846097;31;36650;-78
2022/01/04 18:57:27;;;;;;;5.12;2.42;;;;;;;13.71;49.89;98291.53;7846114;31;39713;-79
2022/01/04 19:01:43;;;;;;;5.18;2.80;;;;;;;13.77;49.81;98286.66;7845862;31;40725;-79
2022/01/04 19:06:00;;;;;;;5.07;2.90;;;;;;;13.58;50.04;98278.06;7845702;31;38769;-79
2022/01/04 19:10:16;;;;;;;4.32;2.58;;;;;;;13.41;50.74;98287.13;7846052;31;36917;-79
2022/01/04 19:14:32;;;;;;;6.03;3.08;;;;;;;13.26;51.39;98277.47;7849244;31;39135;-79
2022/01/04 19:18:49;;;;;;;5.12;2.70;;;;;;;13.19;51.70;98288.13;7849084;31;39864;-77
2022/01/04 19:23:06;;;;;;;5.97;3.00;;;;;;;13.58;50.50;98289.81;7849022;31;39047;-78
2022/01/04 19:27:22;;;;;;;4.47;2.67;;;;;;;13.78;50.02;98274.59;7849034;31;37039;-78
2022/01/04 19:31:40;;;;;;;5.47;2.92;;;;;;;13.71;50.31;98288.78;7848929;31;40000;-78
2022/01/04 19:36:18;;;;;;;5.65;2.92;;;;;;;13.84;49.69;98275.19;7848952;31;40836;-78
2022/01/04 19:40:37;;;;;;;5.72;2.80;;;;;;;13.47;51.01;98272.94;7848683;31;38593;-78
2022/01/04 19:44:53;;;;;;;3.90;2.60;;;;;;;13.34;50.96;98260.28;7848562;31;37612;-78
2022/01/04 19:49:13;;;;;;;4.82;3.00;;;;;;;12.46;53.37;98256.06;7848268;31;39289;-78
2022/01/04 19:53:29;;;;;;;5.60;2.53;;;;;;;12.65;53.28;98259.25;7847615;31;38937;-78
2022/01/04 19:57:45;;;;;;;4.40;2.50;;;;;;;12.62;53.30;98248.16;7847447;31;38555;-78
2022/01/04 20:02:02;;;;;;;6.97;2.87;;;;;;;12.82;52.90;98243.97;7847451;31;37001;-78
2022/01/04 20:06:18;;;;;;;6.15;3.00;;;;;;;13.18;51.81;98253.69;7847264;31;40057;-78
2022/01/04 20:10:35;;;;;;;5.07;2.83;;;;;;;13.23;51.52;98253.50;7845207;31;38689;-78
2022/01/04 20:14:52;;;;;;;7.65;2.97;;;;;;;13.41;51.13;98252.34;7847748;31;37666;-78
2022/01/04 20:19:08;;;;;;;6.30;2.58;;;;;;;13.75;50.52;98228.69;7848373;31;37148;-78
2022/01/04 20:23:24;;;;;;;4.22;2.10;;;;;;;13.58;50.27;98223.31;7847967;31;39961;-77
2022/01/04 20:27:40;;;;;;;5.90;2.47;;;;;;;13.56;50.59;98218.16;7848218;31;40032;-77